createdAt,value
2023-06-24T00:01:33.055Z,20.58
2023-06-24T00:04:00.017Z,18.42
2023-06-24T00:06:27.436Z,18.83
2023-06-24T00:09:01.501Z,17.50
2023-06-24T00:11:31.840Z,23.98
2023-06-24T00:13:58.941Z,20.60
2023-06-24T00:16:28.768Z,18.40
2023-06-24T00:19:02.735Z,21.00
2023-06-24T00:21:31.090Z,19.42
2023-06-24T00:23:59.074Z,19.98
2023-06-24T00:26:26.714Z,20.45
2023-06-24T00:28:53.544Z,19.00
2023-06-24T00:31:21.439Z,22.65
2023-06-24T00:33:50.848Z,20.13
2023-06-24T00:36:18.079Z,19.60
2023-06-24T00:38:45.233Z,18.88
2023-06-24T00:41:12.407Z,20.77
2023-06-24T00:43:40.583Z,20.60
2023-06-24T00:46:07.928Z,20.05
2023-06-24T00:48:34.953Z,20.90
2023-06-24T00:51:01.968Z,19.63
2023-06-24T00:53:28.926Z,17.38
2023-06-24T00:55:57.280Z,20.92
2023-06-24T00:58:24.228Z,20.70
2023-06-24T01:00:58.529Z,21.15
2023-06-24T01:03:29.347Z,19.75
2023-06-24T01:05:56.523Z,22.10
2023-06-24T01:08:26.510Z,18.60
2023-06-24T01:10:53.747Z,17.63
2023-06-24T01:13:21.136Z,19.80
2023-06-24T01:15:48.709Z,24.77
2023-06-24T01:18:31.435Z,18.42
2023-06-24T01:21:05.003Z,22.88
2023-06-24T01:23:44.060Z,18.30
2023-06-24T01:26:44.074Z,19.73
2023-06-24T01:29:51.663Z,17.88
2023-06-24T01:32:49.625Z,18.73
2023-06-24T01:35:18.611Z,17.45
2023-06-24T01:37:54.919Z,17.90
2023-06-24T01:40:38.364Z,17.20
2023-06-24T01:43:07.822Z,17.77
2023-06-24T01:45:38.483Z,16.77
2023-06-24T01:48:33.955Z,17.83
2023-06-24T01:51:03.033Z,17.73
2023-06-24T01:53:30.349Z,15.75
2023-06-24T01:55:59.214Z,14.43
2023-06-24T01:58:26.028Z,16.58
2023-06-24T02:00:53.741Z,14.00
2023-06-24T02:03:21.549Z,12.27
2023-06-24T02:05:48.897Z,19.02
2023-06-24T02:08:16.369Z,14.18
2023-06-24T02:10:43.873Z,13.82
2023-06-24T02:13:11.508Z,16.10
2023-06-24T02:15:39.865Z,14.75
2023-06-24T02:18:08.123Z,12.50
2023-06-24T02:20:35.512Z,13.57
2023-06-24T02:23:02.853Z,16.58
2023-06-24T02:25:29.796Z,13.18
2023-06-24T02:27:58.672Z,13.75
2023-06-24T02:30:26.133Z,16.30
2023-06-24T02:32:56.508Z,13.88
2023-06-24T02:35:23.326Z,14.10
2023-06-24T02:37:50.284Z,15.20
2023-06-24T02:40:17.325Z,14.52
2023-06-24T02:42:44.277Z,13.18
2023-06-24T02:45:11.590Z,15.80
2023-06-24T02:47:39.374Z,12.73
2023-06-24T02:50:07.803Z,15.15
2023-06-24T02:52:38.114Z,12.15
2023-06-24T02:55:08.425Z,14.43
2023-06-24T02:57:51.753Z,14.02
2023-06-24T03:00:38.499Z,11.48
2023-06-24T03:03:22.783Z,13.45
2023-06-24T03:05:55.036Z,16.02
2023-06-24T03:08:22.957Z,13.73
2023-06-24T03:10:55.617Z,15.25
2023-06-24T03:13:24.628Z,13.57
2023-06-24T03:15:58.261Z,12.73
2023-06-24T03:18:25.618Z,12.32
2023-06-24T03:20:54.207Z,12.10
2023-06-24T03:23:24.641Z,13.52
2023-06-24T03:25:52.001Z,13.32
2023-06-24T03:28:18.809Z,13.68
2023-06-24T03:30:51.191Z,12.10
2023-06-24T03:33:20.471Z,13.05
2023-06-24T03:35:48.695Z,15.23
2023-06-24T03:38:19.629Z,11.02
2023-06-24T03:40:47.971Z,17.80
2023-06-24T03:43:15.292Z,15.38
2023-06-24T03:45:42.316Z,14.50
2023-06-24T03:48:09.215Z,13.38
2023-06-24T03:50:36.067Z,16.77
2023-06-24T03:53:04.215Z,12.00
2023-06-24T03:55:31.522Z,15.80
2023-06-24T03:57:59.597Z,15.05
2023-06-24T04:00:27.553Z,13.52
2023-06-24T04:02:54.731Z,14.20
2023-06-24T04:05:22.989Z,15.38
2023-06-24T04:07:52.139Z,15.10
2023-06-24T04:10:19.729Z,16.88
2023-06-24T04:12:47.227Z,14.82
2023-06-24T04:15:14.954Z,16.40
2023-06-24T04:17:42.109Z,16.00
2023-06-24T04:20:12.275Z,12.70
2023-06-24T04:22:41.498Z,13.23
2023-06-24T04:25:08.889Z,15.68
2023-06-24T04:27:36.926Z,16.42
2023-06-24T04:30:06.083Z,17.33
2023-06-24T04:32:32.971Z,15.25
2023-06-24T04:35:04.094Z,12.95
2023-06-24T04:37:30.938Z,15.77
2023-06-24T04:39:58.715Z,18.23
2023-06-24T04:42:25.720Z,15.40
2023-06-24T04:44:52.634Z,15.80
2023-06-24T04:47:19.948Z,14.23
2023-06-24T04:49:46.943Z,16.48
2023-06-24T04:52:13.856Z,17.65
2023-06-24T04:54:40.826Z,19.90
2023-06-24T04:57:10.914Z,17.70
2023-06-24T04:59:39.519Z,18.75
2023-06-24T05:02:06.962Z,16.80
2023-06-24T05:04:34.132Z,16.80
2023-06-24T05:07:01.165Z,20.65
2023-06-24T05:09:28.105Z,16.83
2023-06-24T05:11:55.027Z,16.95
2023-06-24T05:14:21.768Z,18.08
2023-06-24T05:16:48.820Z,15.95
2023-06-24T05:19:16.214Z,20.35
2023-06-24T05:21:43.295Z,16.95
2023-06-24T05:24:10.111Z,17.70
2023-06-24T05:26:37.064Z,15.20
2023-06-24T05:29:04.724Z,13.80
2023-06-24T05:31:31.645Z,15.93
2023-06-24T05:33:58.454Z,13.60
2023-06-24T05:36:25.506Z,18.30
2023-06-24T05:38:52.605Z,14.90
2023-06-24T05:41:19.403Z,19.17
2023-06-24T05:43:46.479Z,16.52
2023-06-24T05:46:13.522Z,18.58
2023-06-24T05:48:40.756Z,16.65
2023-06-24T05:51:07.661Z,14.32
2023-06-24T05:53:34.544Z,17.02
2023-06-24T05:56:01.411Z,15.38
2023-06-24T05:58:28.301Z,17.83
2023-06-24T06:00:56.607Z,16.65
2023-06-24T06:03:23.559Z,12.75
2023-06-24T06:05:50.362Z,14.10
2023-06-24T06:08:17.334Z,14.82
2023-06-24T06:10:44.258Z,15.43
2023-06-24T06:13:11.132Z,13.98
2023-06-24T06:15:38.313Z,16.13
2023-06-24T06:18:05.418Z,15.45
2023-06-24T06:20:32.364Z,12.82
2023-06-24T06:22:59.430Z,12.93
2023-06-24T06:25:27.611Z,17.15
2023-06-24T06:27:54.412Z,12.68
2023-06-24T06:30:21.897Z,13.30
2023-06-24T06:32:48.715Z,12.25
2023-06-24T06:35:15.595Z,12.88
2023-06-24T06:37:42.539Z,11.25
2023-06-24T06:40:09.816Z,10.98
2023-06-24T06:42:36.966Z,12.38
2023-06-24T06:45:05.053Z,10.48
2023-06-24T06:47:32.170Z,13.85
2023-06-24T06:49:58.999Z,9.93
2023-06-24T06:52:25.876Z,9.18
2023-06-24T06:54:52.873Z,9.15
2023-06-24T06:57:19.760Z,10.25
2023-06-24T06:59:46.937Z,8.85
2023-06-24T07:02:13.850Z,8.82
2023-06-24T07:04:40.603Z,11.85
2023-06-24T07:07:07.422Z,10.25
2023-06-24T07:09:34.361Z,7.22
2023-06-24T07:12:01.584Z,12.82
2023-06-24T07:14:31.464Z,9.55
2023-06-24T07:16:58.289Z,10.93
2023-06-24T07:19:25.160Z,9.70
2023-06-24T07:21:53.004Z,8.80
2023-06-24T07:24:19.822Z,7.30
2023-06-24T07:26:46.616Z,10.20
2023-06-24T07:29:13.564Z,7.63
2023-06-24T07:31:40.927Z,8.23
2023-06-24T07:34:07.879Z,8.75
2023-06-24T07:36:34.741Z,8.45
2023-06-24T07:39:01.743Z,9.00
2023-06-24T07:41:28.810Z,6.80
2023-06-24T07:43:58.758Z,11.57
2023-06-24T07:46:29.099Z,9.07
2023-06-24T07:48:56.016Z,6.47
2023-06-24T07:51:23.069Z,6.43
2023-06-24T07:53:50.175Z,9.13
2023-06-24T07:56:17.021Z,6.25
2023-06-24T07:58:43.864Z,7.50
2023-06-24T08:01:10.769Z,9.20
2023-06-24T08:03:40.698Z,7.22
2023-06-24T08:06:07.743Z,6.90
2023-06-24T08:08:34.625Z,7.75
2023-06-24T08:11:01.417Z,7.80
2023-06-24T08:13:28.264Z,8.68
2023-06-24T08:15:58.610Z,7.95
2023-06-24T08:18:25.464Z,7.70
2023-06-24T08:20:53.173Z,9.30
2023-06-24T08:23:20.075Z,7.75
2023-06-24T08:25:46.970Z,7.28
2023-06-24T08:28:15.804Z,7.18
2023-06-24T08:30:43.176Z,10.13
2023-06-24T08:33:10.355Z,8.77
2023-06-24T08:35:37.507Z,6.70
2023-06-24T08:38:04.555Z,4.95
2023-06-24T08:40:31.749Z,6.95
2023-06-24T08:43:00.224Z,5.82
2023-06-24T08:45:27.164Z,4.60
2023-06-24T08:47:54.267Z,6.20
2023-06-24T08:50:21.601Z,6.25
2023-06-24T08:52:52.139Z,4.53
2023-06-24T08:55:23.722Z,4.90
2023-06-24T08:57:51.538Z,6.18
2023-06-24T09:00:18.715Z,5.05
2023-06-24T09:02:46.708Z,5.18
2023-06-24T09:05:13.805Z,4.60
2023-06-24T09:07:44.852Z,4.40
2023-06-24T09:10:12.059Z,5.20
2023-06-24T09:12:38.863Z,5.30
2023-06-24T09:15:06.269Z,5.63
2023-06-24T09:17:33.197Z,4.28
2023-06-24T09:20:07.383Z,6.35
2023-06-24T09:22:34.400Z,4.88
2023-06-24T09:25:02.694Z,5.10
2023-06-24T09:27:32.789Z,3.92
2023-06-24T09:29:59.718Z,4.90
2023-06-24T09:32:33.156Z,5.47
2023-06-24T09:35:03.159Z,4.80
2023-06-24T09:37:33.738Z,4.35
2023-06-24T09:40:02.687Z,4.75
2023-06-24T09:42:29.668Z,4.97
2023-06-24T09:44:57.417Z,4.03
2023-06-24T09:47:28.628Z,3.65
2023-06-24T09:49:55.653Z,5.40
2023-06-24T09:52:23.363Z,3.13
2023-06-24T09:54:53.409Z,4.65
2023-06-24T09:57:26.510Z,4.38
2023-06-24T09:59:53.608Z,5.28
2023-06-24T10:02:21.201Z,3.20
2023-06-24T10:04:48.876Z,3.47
2023-06-24T10:07:16.880Z,4.50
2023-06-24T10:09:44.856Z,4.47
2023-06-24T10:12:12.270Z,4.18
2023-06-24T10:14:39.480Z,3.78
2023-06-24T10:17:07.094Z,4.50
2023-06-24T10:19:41.092Z,4.00
2023-06-24T10:22:10.843Z,3.50
2023-06-24T10:24:43.818Z,3.10
2023-06-24T10:27:16.516Z,4.05
2023-06-24T10:29:48.255Z,3.00
2023-06-24T10:32:15.917Z,3.20
2023-06-24T10:34:47.276Z,3.45
2023-06-24T10:37:27.215Z,4.95
2023-06-24T10:40:03.832Z,3.33
2023-06-24T10:42:43.928Z,4.03
2023-06-24T10:45:10.837Z,5.18
2023-06-24T10:47:40.221Z,5.93
2023-06-24T10:50:08.409Z,4.15
2023-06-24T10:52:39.924Z,3.60
2023-06-24T10:55:08.527Z,4.85
2023-06-24T10:57:35.748Z,4.55
2023-06-24T11:00:04.588Z,3.67
2023-06-24T11:02:31.608Z,4.63
2023-06-24T11:05:02.724Z,3.72
2023-06-24T11:07:33.289Z,7.22
2023-06-24T11:10:06.808Z,3.63
2023-06-24T11:12:35.374Z,4.65
2023-06-24T11:15:04.221Z,5.00
2023-06-24T11:17:31.337Z,3.25
2023-06-24T11:19:59.791Z,3.78
2023-06-24T11:22:27.826Z,4.03
2023-06-24T11:24:57.890Z,4.25
2023-06-24T11:27:29.024Z,5.07
2023-06-24T11:29:57.409Z,3.80
2023-06-24T11:32:24.382Z,4.32
2023-06-24T11:34:52.927Z,8.00
2023-06-24T11:37:20.113Z,6.35
2023-06-24T11:40:06.262Z,6.90
2023-06-24T11:42:38.769Z,5.63
2023-06-24T11:45:12.792Z,3.40
2023-06-24T11:47:43.206Z,6.32
2023-06-24T11:50:10.837Z,3.72
2023-06-24T11:52:42.640Z,4.97
2023-06-24T11:55:28.805Z,5.18
2023-06-24T11:58:02.437Z,4.28
2023-06-24T12:00:34.319Z,5.07
2023-06-24T12:03:11.680Z,5.55
2023-06-24T12:05:41.592Z,4.88
2023-06-24T12:08:11.125Z,5.07
2023-06-24T12:10:40.600Z,4.93
2023-06-24T12:13:10.095Z,4.18
2023-06-24T12:15:37.097Z,6.57
2023-06-24T12:18:04.322Z,4.35
2023-06-24T12:20:35.028Z,3.60
2023-06-24T12:23:07.978Z,3.08
2023-06-24T12:25:35.288Z,3.80
2023-06-24T12:28:04.234Z,3.72
2023-06-24T12:30:31.235Z,7.15
2023-06-24T12:32:59.349Z,3.25
2023-06-24T12:35:26.927Z,4.07
2023-06-24T12:37:54.152Z,4.80
2023-06-24T12:40:21.336Z,4.43
2023-06-24T12:42:48.449Z,4.45
2023-06-24T12:45:15.428Z,7.20
2023-06-24T12:47:42.680Z,5.80
2023-06-24T12:50:12.683Z,5.32
2023-06-24T12:52:40.929Z,4.80
2023-06-24T12:55:09.016Z,7.57
2023-06-24T12:57:36.963Z,5.38
2023-06-24T13:00:06.963Z,4.03
2023-06-24T13:02:34.635Z,5.78
2023-06-24T13:05:01.650Z,5.22
2023-06-24T13:07:29.371Z,4.47
2023-06-24T13:09:56.234Z,3.80
2023-06-24T13:12:23.780Z,6.97
2023-06-24T13:14:50.791Z,4.53
2023-06-24T13:17:17.899Z,4.45
2023-06-24T13:19:44.717Z,3.85
2023-06-24T13:22:11.986Z,4.95
2023-06-24T13:24:39.757Z,4.53
2023-06-24T13:27:06.838Z,3.85
2023-06-24T13:29:33.794Z,5.05
2023-06-24T13:32:00.690Z,3.20
2023-06-24T13:34:27.579Z,4.05
2023-06-24T13:36:54.533Z,4.93
2023-06-24T13:39:24.947Z,4.38
2023-06-24T13:41:51.940Z,4.80
2023-06-24T13:44:18.811Z,4.90
2023-06-24T13:46:45.841Z,5.20
2023-06-24T13:49:12.945Z,4.97
2023-06-24T13:51:41.282Z,6.45
2023-06-24T13:54:08.144Z,5.57
2023-06-24T13:56:35.238Z,4.70
2023-06-24T13:59:02.110Z,4.82
2023-06-24T14:01:29.979Z,4.03
2023-06-24T14:03:57.362Z,5.57
2023-06-24T14:06:25.034Z,3.75
2023-06-24T14:08:52.654Z,5.07
2023-06-24T14:11:19.492Z,5.60
2023-06-24T14:13:47.055Z,3.58
2023-06-24T14:16:14.321Z,4.38
2023-06-24T14:18:42.490Z,5.65
2023-06-24T14:21:09.699Z,3.42
2023-06-24T14:23:37.042Z,4.53
2023-06-24T14:26:04.962Z,4.47
2023-06-24T14:28:31.990Z,7.25
2023-06-24T14:30:59.053Z,6.03
2023-06-24T14:33:26.076Z,5.82
2023-06-24T14:35:53.707Z,4.97
2023-06-24T14:38:20.738Z,3.60
2023-06-24T14:40:47.922Z,3.53
2023-06-24T14:43:14.916Z,5.32
2023-06-24T14:45:41.781Z,3.67
2023-06-24T14:48:08.812Z,4.30
2023-06-24T14:50:36.122Z,4.38
2023-06-24T14:53:03.620Z,4.45
2023-06-24T14:55:30.683Z,3.60
2023-06-24T14:57:58.018Z,3.97
2023-06-24T15:00:25.134Z,6.60
2023-06-24T15:02:52.344Z,5.07
2023-06-24T15:05:19.274Z,3.30
2023-06-24T15:07:46.048Z,6.00
2023-06-24T15:10:12.989Z,5.80
2023-06-24T15:12:41.444Z,6.43
2023-06-24T15:15:09.071Z,5.07
2023-06-24T15:17:37.568Z,5.10
2023-06-24T15:20:05.085Z,6.15
2023-06-24T15:22:32.832Z,4.40
2023-06-24T15:24:59.845Z,6.80
2023-06-24T15:27:27.353Z,4.72
2023-06-24T15:29:54.554Z,5.15
2023-06-24T15:32:21.551Z,5.60
2023-06-24T15:34:48.461Z,4.75
2023-06-24T15:37:18.810Z,4.30
2023-06-24T15:39:46.237Z,4.88
2023-06-24T15:42:13.462Z,6.70
2023-06-24T15:44:40.414Z,4.97
2023-06-24T15:47:07.777Z,4.38
2023-06-24T15:49:34.828Z,4.90
2023-06-24T15:52:01.778Z,4.60
2023-06-24T15:54:28.846Z,4.18
2023-06-24T15:56:55.812Z,2.95
2023-06-24T15:59:26.313Z,4.55
2023-06-24T16:01:55.253Z,3.47
2023-06-24T16:04:22.407Z,3.85
2023-06-24T16:06:49.316Z,5.50
2023-06-24T16:09:16.400Z,3.38
2023-06-24T16:11:43.690Z,5.50
2023-06-24T16:14:10.747Z,8.27
2023-06-24T16:16:37.621Z,3.58
2023-06-24T16:19:04.650Z,4.18
2023-06-24T16:21:31.532Z,6.07
2023-06-24T16:23:58.582Z,3.72
2023-06-24T16:26:25.475Z,4.60
2023-06-24T16:28:52.234Z,5.60
2023-06-24T16:31:19.329Z,4.38
2023-06-24T16:33:46.224Z,3.78
2023-06-24T16:36:13.224Z,4.88
2023-06-24T16:38:40.269Z,3.17
2023-06-24T16:41:07.144Z,4.28
2023-06-24T16:43:33.948Z,4.72
2023-06-24T16:46:01.050Z,4.07
2023-06-24T16:48:28.009Z,5.03
2023-06-24T16:50:54.878Z,5.00
2023-06-24T16:53:22.265Z,5.47
2023-06-24T16:55:50.205Z,5.55
2023-06-24T16:58:17.170Z,5.65
2023-06-24T17:00:45.720Z,3.97
2023-06-24T17:03:12.662Z,4.88
2023-06-24T17:05:41.336Z,3.60
2023-06-24T17:08:08.508Z,4.78
2023-06-24T17:10:36.593Z,4.00
2023-06-24T17:13:03.923Z,4.53
2023-06-24T17:15:31.247Z,5.75
2023-06-24T17:17:58.055Z,4.53
2023-06-24T17:20:25.064Z,6.07
2023-06-24T17:22:52.053Z,3.42
2023-06-24T17:25:18.968Z,5.68
2023-06-24T17:27:45.912Z,5.50
2023-06-24T17:30:13.045Z,4.20
2023-06-24T17:32:40.446Z,7.32
2023-06-24T17:35:07.661Z,4.80
2023-06-24T17:37:35.246Z,6.47
2023-06-24T17:40:04.571Z,6.18
2023-06-24T17:42:31.585Z,3.95
2023-06-24T17:44:58.518Z,4.40
2023-06-24T17:47:25.462Z,4.55
2023-06-24T17:49:52.393Z,3.92
2023-06-24T17:52:19.298Z,4.15
2023-06-24T17:54:46.232Z,4.18
2023-06-24T17:57:13.569Z,5.65
2023-06-24T17:59:40.385Z,4.85
2023-06-24T18:02:07.464Z,4.30
2023-06-24T18:04:34.397Z,5.13
2023-06-24T18:07:01.369Z,4.68
2023-06-24T18:09:28.235Z,6.03
2023-06-24T18:11:55.166Z,4.55
2023-06-24T18:14:22.113Z,3.72
2023-06-24T18:16:53.447Z,4.30
2023-06-24T18:19:21.339Z,4.82
2023-06-24T18:21:48.289Z,5.85
2023-06-24T18:24:15.097Z,4.80
2023-06-24T18:26:41.984Z,4.78
2023-06-24T18:29:09.302Z,5.00
2023-06-24T18:31:38.240Z,8.00
2023-06-24T18:34:05.082Z,6.32
2023-06-24T18:36:31.946Z,5.35
2023-06-24T18:38:58.986Z,6.03
2023-06-24T18:41:25.792Z,5.03
2023-06-24T18:43:54.364Z,5.65
2023-06-24T18:46:21.348Z,7.25
2023-06-24T18:48:48.595Z,8.73
2023-06-24T18:51:15.671Z,6.85
2023-06-24T18:53:42.546Z,5.88
2023-06-24T18:56:09.358Z,5.70
2023-06-24T18:58:37.742Z,7.00
2023-06-24T19:01:04.616Z,6.38
2023-06-24T19:03:31.858Z,3.83
2023-06-24T19:05:59.204Z,5.53
2023-06-24T19:08:26.343Z,6.00
2023-06-24T19:10:53.214Z,4.57
2023-06-24T19:13:20.346Z,4.28
2023-06-24T19:15:47.842Z,6.57
2023-06-24T19:18:14.795Z,4.80
2023-06-24T19:20:42.483Z,6.18
2023-06-24T19:23:09.910Z,5.20
2023-06-24T19:25:37.087Z,4.97
2023-06-24T19:28:04.382Z,5.90
2023-06-24T19:30:31.313Z,6.45
2023-06-24T19:32:58.297Z,5.55
2023-06-24T19:35:25.216Z,5.53
2023-06-24T19:37:52.185Z,6.13
2023-06-24T19:40:21.111Z,6.20
2023-06-24T19:42:48.005Z,6.22
2023-06-24T19:45:14.905Z,8.35
2023-06-24T19:47:41.853Z,6.38
2023-06-24T19:50:10.626Z,5.05
2023-06-24T19:52:37.578Z,7.30
2023-06-24T19:55:04.840Z,6.18
2023-06-24T19:57:33.730Z,8.32
2023-06-24T20:00:00.830Z,6.82
2023-06-24T20:02:28.082Z,9.13
2023-06-24T20:04:55.017Z,6.63
2023-06-24T20:07:22.018Z,7.70
2023-06-24T20:09:49.774Z,7.68
2023-06-24T20:12:16.713Z,8.30
2023-06-24T20:14:44.039Z,7.93
2023-06-24T20:17:11.174Z,6.75
2023-06-24T20:19:37.988Z,7.65
2023-06-24T20:22:05.452Z,7.32
2023-06-24T20:24:32.508Z,12.52
2023-06-24T20:27:02.002Z,7.13
2023-06-24T20:29:29.006Z,7.47
2023-06-24T20:31:56.282Z,8.20
2023-06-24T20:34:23.319Z,8.82
2023-06-24T20:36:50.268Z,6.70
2023-06-24T20:39:17.517Z,7.65
2023-06-24T20:41:45.006Z,9.55
2023-06-24T20:44:12.795Z,8.40
2023-06-24T20:46:39.823Z,6.43
2023-06-24T20:49:06.722Z,7.32
2023-06-24T20:51:33.576Z,7.50
2023-06-24T20:54:00.478Z,6.50
2023-06-24T20:56:30.416Z,6.30
2023-06-24T20:58:57.242Z,6.72
2023-06-24T21:01:24.151Z,6.70
2023-06-24T21:03:51.218Z,6.75
2023-06-24T21:06:21.327Z,8.10
2023-06-24T21:08:48.327Z,7.72
2023-06-24T21:11:15.184Z,8.55
2023-06-24T21:13:42.015Z,9.20
2023-06-24T21:16:11.957Z,8.43
2023-06-24T21:18:38.824Z,8.25
2023-06-24T21:21:05.606Z,7.13
2023-06-24T21:23:32.459Z,6.65
2023-06-24T21:25:59.869Z,8.15
2023-06-24T21:28:26.739Z,8.57
2023-06-24T21:30:53.873Z,7.72
2023-06-24T21:33:20.745Z,7.85
2023-06-24T21:35:59.986Z,9.02
2023-06-24T21:38:28.392Z,8.48
2023-06-24T21:40:55.381Z,6.72
2023-06-24T21:43:22.457Z,13.00
2023-06-24T21:45:49.489Z,6.30
2023-06-24T21:48:16.352Z,11.10
2023-06-24T21:50:43.305Z,9.77
2023-06-24T21:53:10.354Z,6.30
2023-06-24T21:55:37.820Z,7.60
2023-06-24T21:58:04.613Z,7.03
2023-06-24T22:00:33.681Z,8.75
2023-06-24T22:03:00.700Z,9.63
2023-06-24T22:05:34.933Z,12.40
2023-06-24T22:08:06.016Z,8.82
2023-06-24T22:10:32.936Z,8.80
2023-06-24T22:13:00.411Z,8.32
2023-06-24T22:15:27.408Z,7.57
2023-06-24T22:17:54.994Z,7.45
2023-06-24T22:20:21.912Z,9.00
2023-06-24T22:22:48.855Z,8.98
2023-06-24T22:25:15.783Z,10.07
2023-06-24T22:27:43.114Z,13.02
2023-06-24T22:30:10.527Z,12.35
2023-06-24T22:32:37.626Z,12.57
2023-06-24T22:35:05.039Z,11.45
2023-06-24T22:37:32.201Z,11.18
2023-06-24T22:39:59.383Z,13.00
2023-06-24T22:42:26.168Z,11.25
2023-06-24T22:44:53.268Z,13.80
2023-06-24T22:47:20.265Z,12.05
2023-06-24T22:49:47.208Z,11.95
2023-06-24T22:52:14.114Z,13.68
2023-06-24T22:54:40.909Z,11.88
2023-06-24T22:57:07.888Z,11.02
2023-06-24T22:59:34.693Z,12.48
2023-06-24T23:02:02.041Z,13.43
2023-06-24T23:04:29.215Z,11.68
2023-06-24T23:06:56.855Z,11.98
2023-06-24T23:09:24.254Z,14.95
2023-06-24T23:11:53.120Z,10.23
2023-06-24T23:14:22.998Z,9.68
2023-06-24T23:16:51.187Z,10.23
2023-06-24T23:19:18.349Z,10.70
2023-06-24T23:21:45.268Z,10.80
2023-06-24T23:24:15.197Z,12.65
2023-06-24T23:26:51.876Z,10.10
2023-06-24T23:29:22.298Z,10.95
2023-06-24T23:31:49.796Z,10.02
2023-06-24T23:34:18.624Z,9.85
2023-06-24T23:36:46.281Z,11.65
2023-06-24T23:39:14.195Z,9.80
2023-06-24T23:41:41.093Z,10.80
2023-06-24T23:44:08.298Z,8.52
2023-06-24T23:46:35.879Z,11.13
2023-06-24T23:49:02.747Z,9.40
2023-06-24T23:51:29.520Z,12.30
2023-06-24T23:53:56.552Z,9.85
2023-06-24T23:56:23.374Z,10.70
2023-06-24T23:58:50.227Z,8.90
